sensor_id;sensor_type;location;lat;lon;timestamp;P1;durP1;ratioP1;P2;durP2;ratioP2
17171;SDS011;8701;50.150;8.756;2022-12-15T00:02:30;17.50;;;9.87;;
17171;SDS011;8701;50.150;8.756;2022-12-15T00:06:50;18.97;;;9.77;;
17171;SDS011;8701;50.150;8.756;2022-12-15T00:11:10;16.03;;;8.33;;
17171;SDS011;8701;50.150;8.756;2022-12-15T00:15:30;18.40;;;9.10;;
17171;SDS011;8701;50.150;8.756;2022-12-15T00:19:51;17.20;;;9.60;;
17171;SDS011;8701;50.150;8.756;2022-12-15T00:24:11;17.20;;;9.80;;
17171;SDS011;8701;50.150;8.756;2022-12-15T00:28:31;18.73;;;10.23;;
17171;SDS011;8701;50.150;8.756;2022-12-15T00:32:51;16.60;;;9.37;;
17171;SDS011;8701;50.150;8.756;2022-12-15T00:37:12;17.80;;;9.87;;
17171;SDS011;8701;50.150;8.756;2022-12-15T00:41:32;17.13;;;10.20;;
17171;SDS011;8701;50.150;8.756;2022-12-15T00:45:34;25.37;;;10.57;;
17171;SDS011;8701;50.150;8.756;2022-12-15T00:49:50;16.07;;;10.33;;
17171;SDS011;8701;50.150;8.756;2022-12-15T00:54:12;16.30;;;9.50;;
17171;SDS011;8701;50.150;8.756;2022-12-15T00:58:32;18.77;;;9.23;;
17171;SDS011;8701;50.150;8.756;2022-12-15T01:02:52;21.87;;;10.50;;
17171;SDS011;8701;50.150;8.756;2022-12-15T01:07:12;17.60;;;9.97;;
17171;SDS011;8701;50.150;8.756;2022-12-15T01:11:33;19.03;;;9.80;;
17171;SDS011;8701;50.150;8.756;2022-12-15T01:15:53;15.00;;;9.40;;
17171;SDS011;8701;50.150;8.756;2022-12-15T01:20:13;12.80;;;8.67;;
17171;SDS011;8701;50.150;8.756;2022-12-15T01:24:18;17.60;;;9.77;;
17171;SDS011;8701;50.150;8.756;2022-12-15T01:28:22;17.10;;;9.33;;
17171;SDS011;8701;50.150;8.756;2022-12-15T01:32:25;14.37;;;8.50;;
17171;SDS011;8701;50.150;8.756;2022-12-15T01:36:28;15.57;;;8.50;;
17171;SDS011;8701;50.150;8.756;2022-12-15T01:40:30;17.73;;;9.70;;
17171;SDS011;8701;50.150;8.756;2022-12-15T01:44:51;17.03;;;10.07;;
17171;SDS011;8701;50.150;8.756;2022-12-15T01:48:56;14.57;;;8.40;;
17171;SDS011;8701;50.150;8.756;2022-12-15T01:53:00;16.17;;;9.67;;
17171;SDS011;8701;50.150;8.756;2022-12-15T01:57:04;17.30;;;9.70;;
17171;SDS011;8701;50.150;8.756;2022-12-15T02:01:10;16.20;;;8.90;;
17171;SDS011;8701;50.150;8.756;2022-12-15T02:05:13;14.47;;;8.93;;
17171;SDS011;8701;50.150;8.756;2022-12-15T02:09:15;14.90;;;8.53;;
17171;SDS011;8701;50.150;8.756;2022-12-15T02:13:20;15.27;;;8.93;;
17171;SDS011;8701;50.150;8.756;2022-12-15T02:17:36;14.00;;;8.57;;
17171;SDS011;8701;50.150;8.756;2022-12-15T02:21:48;13.17;;;8.47;;
17171;SDS011;8701;50.150;8.756;2022-12-15T02:26:04;18.83;;;10.20;;
17171;SDS011;8701;50.150;8.756;2022-12-15T02:30:27;18.50;;;9.10;;
17171;SDS011;8701;50.150;8.756;2022-12-15T02:34:38;16.77;;;9.60;;
17171;SDS011;8701;50.150;8.756;2022-12-15T02:38:43;13.80;;;7.90;;
17171;SDS011;8701;50.150;8.756;2022-12-15T02:42:46;16.27;;;9.30;;
17171;SDS011;8701;50.150;8.756;2022-12-15T02:47:01;18.30;;;9.03;;
17171;SDS011;8701;50.150;8.756;2022-12-15T02:51:16;21.70;;;10.67;;
17171;SDS011;8701;50.150;8.756;2022-12-15T02:55:28;15.77;;;8.70;;
17171;SDS011;8701;50.150;8.756;2022-12-15T02:59:38;19.17;;;9.57;;
17171;SDS011;8701;50.150;8.756;2022-12-15T03:03:47;18.93;;;9.63;;
17171;SDS011;8701;50.150;8.756;2022-12-15T03:07:51;14.53;;;8.27;;
17171;SDS011;8701;50.150;8.756;2022-12-15T03:11:54;18.07;;;9.50;;
17171;SDS011;8701;50.150;8.756;2022-12-15T03:15:58;13.73;;;8.10;;
17171;SDS011;8701;50.150;8.756;2022-12-15T03:20:02;12.80;;;8.67;;
17171;SDS011;8701;50.150;8.756;2022-12-15T03:24:04;15.43;;;8.80;;
17171;SDS011;8701;50.150;8.756;2022-12-15T03:28:07;18.50;;;9.00;;
17171;SDS011;8701;50.150;8.756;2022-12-15T03:32:09;21.23;;;10.53;;
17171;SDS011;8701;50.150;8.756;2022-12-15T03:36:13;34.53;;;10.77;;
17171;SDS011;8701;50.150;8.756;2022-12-15T03:40:15;20.33;;;9.80;;
17171;SDS011;8701;50.150;8.756;2022-12-15T03:44:17;21.43;;;9.73;;
17171;SDS011;8701;50.150;8.756;2022-12-15T03:48:20;18.73;;;9.60;;
17171;SDS011;8701;50.150;8.756;2022-12-15T03:52:24;19.30;;;9.83;;
17171;SDS011;8701;50.150;8.756;2022-12-15T03:56:26;17.17;;;9.90;;
17171;SDS011;8701;50.150;8.756;2022-12-15T04:00:29;14.20;;;9.20;;
17171;SDS011;8701;50.150;8.756;2022-12-15T04:04:31;15.60;;;8.30;;
17171;SDS011;8701;50.150;8.756;2022-12-15T04:08:34;22.47;;;9.20;;
17171;SDS011;8701;50.150;8.756;2022-12-15T04:12:37;14.13;;;8.50;;
17171;SDS011;8701;50.150;8.756;2022-12-15T04:16:40;15.50;;;8.50;;
17171;SDS011;8701;50.150;8.756;2022-12-15T04:20:42;17.23;;;8.17;;
17171;SDS011;8701;50.150;8.756;2022-12-15T04:24:45;13.93;;;8.17;;
17171;SDS011;8701;50.150;8.756;2022-12-15T04:29:05;15.30;;;8.57;;
17171;SDS011;8701;50.150;8.756;2022-12-15T04:33:25;16.97;;;9.30;;
17171;SDS011;8701;50.150;8.756;2022-12-15T04:37:45;14.87;;;8.27;;
17171;SDS011;8701;50.150;8.756;2022-12-15T04:42:06;15.70;;;8.20;;
17171;SDS011;8701;50.150;8.756;2022-12-15T04:46:26;13.87;;;7.90;;
17171;SDS011;8701;50.150;8.756;2022-12-15T04:50:46;15.43;;;8.37;;
17171;SDS011;8701;50.150;8.756;2022-12-15T04:55:06;19.33;;;10.23;;
17171;SDS011;8701;50.150;8.756;2022-12-15T04:59:27;17.40;;;9.43;;
17171;SDS011;8701;50.150;8.756;2022-12-15T05:03:47;18.70;;;9.70;;
17171;SDS011;8701;50.150;8.756;2022-12-15T05:08:07;16.63;;;10.07;;
17171;SDS011;8701;50.150;8.756;2022-12-15T05:12:27;16.00;;;8.80;;
17171;SDS011;8701;50.150;8.756;2022-12-15T05:16:48;18.60;;;9.33;;
17171;SDS011;8701;50.150;8.756;2022-12-15T05:21:08;15.73;;;9.40;;
17171;SDS011;8701;50.150;8.756;2022-12-15T05:25:28;20.63;;;10.57;;
17171;SDS011;8701;50.150;8.756;2022-12-15T05:29:48;17.60;;;8.93;;
17171;SDS011;8701;50.150;8.756;2022-12-15T05:34:09;18.40;;;10.43;;
17171;SDS011;8701;50.150;8.756;2022-12-15T05:38:11;16.37;;;9.90;;
17171;SDS011;8701;50.150;8.756;2022-12-15T05:42:14;18.67;;;10.13;;
17171;SDS011;8701;50.150;8.756;2022-12-15T05:46:16;20.40;;;10.07;;
17171;SDS011;8701;50.150;8.756;2022-12-15T05:50:21;15.47;;;9.80;;
17171;SDS011;8701;50.150;8.756;2022-12-15T05:54:23;17.40;;;10.00;;
17171;SDS011;8701;50.150;8.756;2022-12-15T05:58:26;18.23;;;10.57;;
17171;SDS011;8701;50.150;8.756;2022-12-15T06:02:28;18.33;;;10.27;;
17171;SDS011;8701;50.150;8.756;2022-12-15T06:06:32;20.97;;;10.77;;
17171;SDS011;8701;50.150;8.756;2022-12-15T06:10:34;20.27;;;11.20;;
17171;SDS011;8701;50.150;8.756;2022-12-15T06:14:36;22.83;;;11.70;;
17171;SDS011;8701;50.150;8.756;2022-12-15T06:18:39;20.00;;;10.57;;
17171;SDS011;8701;50.150;8.756;2022-12-15T06:22:44;20.60;;;12.00;;
17171;SDS011;8701;50.150;8.756;2022-12-15T06:26:46;18.23;;;10.87;;
17171;SDS011;8701;50.150;8.756;2022-12-15T06:30:49;16.97;;;10.93;;
17171;SDS011;8701;50.150;8.756;2022-12-15T06:34:52;17.23;;;10.53;;
17171;SDS011;8701;50.150;8.756;2022-12-15T06:38:58;20.07;;;11.30;;
17171;SDS011;8701;50.150;8.756;2022-12-15T06:43:01;17.60;;;10.77;;
17171;SDS011;8701;50.150;8.756;2022-12-15T06:47:03;18.60;;;11.13;;
17171;SDS011;8701;50.150;8.756;2022-12-15T06:51:06;22.00;;;11.90;;
17171;SDS011;8701;50.150;8.756;2022-12-15T06:55:10;17.10;;;10.80;;
17171;SDS011;8701;50.150;8.756;2022-12-15T06:59:13;22.23;;;11.90;;
17171;SDS011;8701;50.150;8.756;2022-12-15T07:03:16;20.70;;;11.57;;
17171;SDS011;8701;50.150;8.756;2022-12-15T07:07:19;25.90;;;12.20;;
17171;SDS011;8701;50.150;8.756;2022-12-15T07:11:23;23.53;;;12.50;;
17171;SDS011;8701;50.150;8.756;2022-12-15T07:15:25;21.30;;;11.87;;
17171;SDS011;8701;50.150;8.756;2022-12-15T07:19:28;22.47;;;12.33;;
17171;SDS011;8701;50.150;8.756;2022-12-15T07:23:30;24.13;;;11.57;;
17171;SDS011;8701;50.150;8.756;2022-12-15T07:27:34;21.10;;;11.20;;
17171;SDS011;8701;50.150;8.756;2022-12-15T07:31:36;24.47;;;12.57;;
17171;SDS011;8701;50.150;8.756;2022-12-15T07:35:39;27.53;;;12.67;;
17171;SDS011;8701;50.150;8.756;2022-12-15T07:39:41;23.03;;;13.13;;
17171;SDS011;8701;50.150;8.756;2022-12-15T07:43:46;23.13;;;11.60;;
17171;SDS011;8701;50.150;8.756;2022-12-15T07:47:48;18.13;;;11.10;;
17171;SDS011;8701;50.150;8.756;2022-12-15T07:51:51;18.00;;;10.80;;
17171;SDS011;8701;50.150;8.756;2022-12-15T07:55:58;19.07;;;11.20;;
17171;SDS011;8701;50.150;8.756;2022-12-15T08:00:03;20.20;;;11.67;;
17171;SDS011;8701;50.150;8.756;2022-12-15T08:04:12;17.73;;;10.70;;
17171;SDS011;8701;50.150;8.756;2022-12-15T08:08:14;20.10;;;10.90;;
17171;SDS011;8701;50.150;8.756;2022-12-15T08:12:18;21.00;;;12.30;;
17171;SDS011;8701;50.150;8.756;2022-12-15T08:16:21;21.20;;;11.40;;
17171;SDS011;8701;50.150;8.756;2022-12-15T08:20:24;23.40;;;11.80;;
17171;SDS011;8701;50.150;8.756;2022-12-15T08:24:26;19.37;;;11.27;;
17171;SDS011;8701;50.150;8.756;2022-12-15T08:28:28;20.67;;;11.57;;
17171;SDS011;8701;50.150;8.756;2022-12-15T08:32:33;21.20;;;12.53;;
17171;SDS011;8701;50.150;8.756;2022-12-15T08:36:35;19.03;;;11.13;;
17171;SDS011;8701;50.150;8.756;2022-12-15T08:40:37;20.07;;;11.07;;
17171;SDS011;8701;50.150;8.756;2022-12-15T08:44:39;17.93;;;10.80;;
17171;SDS011;8701;50.150;8.756;2022-12-15T08:48:43;22.33;;;11.10;;
17171;SDS011;8701;50.150;8.756;2022-12-15T08:52:46;22.90;;;11.90;;
17171;SDS011;8701;50.150;8.756;2022-12-15T08:56:48;19.10;;;11.20;;
17171;SDS011;8701;50.150;8.756;2022-12-15T09:00:50;20.00;;;11.10;;
17171;SDS011;8701;50.150;8.756;2022-12-15T09:04:54;18.50;;;11.80;;
17171;SDS011;8701;50.150;8.756;2022-12-15T09:08:57;18.73;;;10.13;;
17171;SDS011;8701;50.150;8.756;2022-12-15T09:13:01;24.20;;;11.87;;
17171;SDS011;8701;50.150;8.756;2022-12-15T09:17:03;20.97;;;11.93;;
17171;SDS011;8701;50.150;8.756;2022-12-15T09:21:07;19.60;;;11.57;;
17171;SDS011;8701;50.150;8.756;2022-12-15T09:25:10;24.00;;;12.40;;
17171;SDS011;8701;50.150;8.756;2022-12-15T09:29:13;22.83;;;11.30;;
17171;SDS011;8701;50.150;8.756;2022-12-15T09:33:16;19.60;;;10.93;;
17171;SDS011;8701;50.150;8.756;2022-12-15T09:37:19;17.93;;;10.57;;
17171;SDS011;8701;50.150;8.756;2022-12-15T09:41:22;19.57;;;11.13;;
17171;SDS011;8701;50.150;8.756;2022-12-15T09:45:28;18.20;;;10.73;;
17171;SDS011;8701;50.150;8.756;2022-12-15T09:49:44;21.10;;;10.87;;
17171;SDS011;8701;50.150;8.756;2022-12-15T09:53:52;18.53;;;10.37;;
17171;SDS011;8701;50.150;8.756;2022-12-15T09:57:55;20.63;;;11.20;;
17171;SDS011;8701;50.150;8.756;2022-12-15T10:02:02;22.63;;;11.80;;
17171;SDS011;8701;50.150;8.756;2022-12-15T10:06:21;20.30;;;10.90;;
17171;SDS011;8701;50.150;8.756;2022-12-15T10:10:29;24.50;;;12.93;;
17171;SDS011;8701;50.150;8.756;2022-12-15T10:14:36;23.70;;;12.20;;
17171;SDS011;8701;50.150;8.756;2022-12-15T10:18:45;25.90;;;13.23;;
17171;SDS011;8701;50.150;8.756;2022-12-15T10:22:55;22.90;;;12.30;;
17171;SDS011;8701;50.150;8.756;2022-12-15T10:27:06;24.67;;;11.83;;
17171;SDS011;8701;50.150;8.756;2022-12-15T10:31:22;25.23;;;13.03;;
17171;SDS011;8701;50.150;8.756;2022-12-15T10:35:31;25.73;;;13.10;;
17171;SDS011;8701;50.150;8.756;2022-12-15T10:39:36;24.90;;;11.27;;
17171;SDS011;8701;50.150;8.756;2022-12-15T10:43:42;24.77;;;12.63;;
17171;SDS011;8701;50.150;8.756;2022-12-15T10:47:46;27.13;;;13.23;;
17171;SDS011;8701;50.150;8.756;2022-12-15T10:52:01;27.73;;;12.50;;
17171;SDS011;8701;50.150;8.756;2022-12-15T10:56:04;25.57;;;12.47;;
17171;SDS011;8701;50.150;8.756;2022-12-15T11:00:26;30.03;;;12.30;;
17171;SDS011;8701;50.150;8.756;2022-12-15T11:04:30;25.60;;;13.33;;
17171;SDS011;8701;50.150;8.756;2022-12-15T11:08:33;24.27;;;12.50;;
17171;SDS011;8701;50.150;8.756;2022-12-15T11:12:35;28.37;;;13.80;;
17171;SDS011;8701;50.150;8.756;2022-12-15T11:16:55;29.50;;;13.17;;
17171;SDS011;8701;50.150;8.756;2022-12-15T11:21:00;28.77;;;13.00;;
17171;SDS011;8701;50.150;8.756;2022-12-15T11:25:19;28.60;;;14.10;;
17171;SDS011;8701;50.150;8.756;2022-12-15T11:29:31;27.27;;;12.63;;
17171;SDS011;8701;50.150;8.756;2022-12-15T11:33:43;24.83;;;12.23;;
17171;SDS011;8701;50.150;8.756;2022-12-15T11:37:46;27.40;;;12.70;;
17171;SDS011;8701;50.150;8.756;2022-12-15T11:41:56;28.27;;;13.07;;
17171;SDS011;8701;50.150;8.756;2022-12-15T11:46:08;28.03;;;12.77;;
17171;SDS011;8701;50.150;8.756;2022-12-15T11:50:23;33.03;;;14.10;;
17171;SDS011;8701;50.150;8.756;2022-12-15T11:54:33;30.27;;;12.53;;
17171;SDS011;8701;50.150;8.756;2022-12-15T11:58:47;25.10;;;12.37;;
17171;SDS011;8701;50.150;8.756;2022-12-15T12:03:00;26.17;;;12.40;;
17171;SDS011;8701;50.150;8.756;2022-12-15T12:07:13;22.57;;;11.10;;
17171;SDS011;8701;50.150;8.756;2022-12-15T12:11:29;27.10;;;13.00;;
17171;SDS011;8701;50.150;8.756;2022-12-15T12:15:40;25.50;;;12.70;;
17171;SDS011;8701;50.150;8.756;2022-12-15T12:19:57;22.97;;;11.77;;
17171;SDS011;8701;50.150;8.756;2022-12-15T12:24:01;22.37;;;10.80;;
17171;SDS011;8701;50.150;8.756;2022-12-15T12:28:12;27.03;;;12.57;;
17171;SDS011;8701;50.150;8.756;2022-12-15T12:32:21;22.20;;;10.40;;
17171;SDS011;8701;50.150;8.756;2022-12-15T12:36:29;25.17;;;12.40;;
17171;SDS011;8701;50.150;8.756;2022-12-15T12:40:36;22.40;;;11.90;;
17171;SDS011;8701;50.150;8.756;2022-12-15T12:44:47;24.43;;;12.00;;
17171;SDS011;8701;50.150;8.756;2022-12-15T12:48:50;22.67;;;11.80;;
17171;SDS011;8701;50.150;8.756;2022-12-15T12:52:56;19.97;;;10.27;;
17171;SDS011;8701;50.150;8.756;2022-12-15T12:57:02;23.00;;;11.63;;
17171;SDS011;8701;50.150;8.756;2022-12-15T13:01:33;22.80;;;10.63;;
17171;SDS011;8701;50.150;8.756;2022-12-15T13:05:38;21.73;;;11.43;;
17171;SDS011;8701;50.150;8.756;2022-12-15T13:09:41;21.77;;;11.67;;
17171;SDS011;8701;50.150;8.756;2022-12-15T13:13:45;22.77;;;12.60;;
17171;SDS011;8701;50.150;8.756;2022-12-15T13:17:49;20.70;;;11.60;;
17171;SDS011;8701;50.150;8.756;2022-12-15T13:21:54;22.97;;;11.80;;
17171;SDS011;8701;50.150;8.756;2022-12-15T13:26:00;24.00;;;12.33;;
17171;SDS011;8701;50.150;8.756;2022-12-15T13:30:17;21.70;;;11.67;;
17171;SDS011;8701;50.150;8.756;2022-12-15T13:34:23;21.60;;;11.60;;
17171;SDS011;8701;50.150;8.756;2022-12-15T13:38:49;21.03;;;11.17;;
17171;SDS011;8701;50.150;8.756;2022-12-15T13:42:55;22.70;;;11.87;;
17171;SDS011;8701;50.150;8.756;2022-12-15T13:47:12;25.23;;;13.40;;
17171;SDS011;8701;50.150;8.756;2022-12-15T13:51:25;25.90;;;12.57;;
17171;SDS011;8701;50.150;8.756;2022-12-15T13:55:34;23.90;;;12.10;;
17171;SDS011;8701;50.150;8.756;2022-12-15T13:59:40;22.33;;;11.67;;
17171;SDS011;8701;50.150;8.756;2022-12-15T14:03:57;20.13;;;11.20;;
17171;SDS011;8701;50.150;8.756;2022-12-15T14:08:14;21.97;;;11.60;;
17171;SDS011;8701;50.150;8.756;2022-12-15T14:12:18;23.87;;;13.00;;
17171;SDS011;8701;50.150;8.756;2022-12-15T14:16:21;22.90;;;12.47;;
17171;SDS011;8701;50.150;8.756;2022-12-15T14:20:27;28.40;;;13.97;;
17171;SDS011;8701;50.150;8.756;2022-12-15T14:24:32;24.37;;;12.80;;
17171;SDS011;8701;50.150;8.756;2022-12-15T14:28:35;23.33;;;12.00;;
17171;SDS011;8701;50.150;8.756;2022-12-15T14:32:39;25.43;;;12.97;;
17171;SDS011;8701;50.150;8.756;2022-12-15T14:36:44;25.40;;;13.33;;
17171;SDS011;8701;50.150;8.756;2022-12-15T14:40:50;22.90;;;12.50;;
17171;SDS011;8701;50.150;8.756;2022-12-15T14:44:55;22.77;;;12.30;;
17171;SDS011;8701;50.150;8.756;2022-12-15T14:48:58;25.70;;;13.47;;
17171;SDS011;8701;50.150;8.756;2022-12-15T14:53:05;25.20;;;13.10;;
17171;SDS011;8701;50.150;8.756;2022-12-15T14:57:15;26.73;;;12.40;;
17171;SDS011;8701;50.150;8.756;2022-12-15T15:01:22;23.20;;;11.97;;
17171;SDS011;8701;50.150;8.756;2022-12-15T15:05:27;24.67;;;12.40;;
17171;SDS011;8701;50.150;8.756;2022-12-15T15:09:32;19.77;;;12.13;;
17171;SDS011;8701;50.150;8.756;2022-12-15T15:13:38;22.83;;;12.43;;
17171;SDS011;8701;50.150;8.756;2022-12-15T15:17:43;24.67;;;13.00;;
17171;SDS011;8701;50.150;8.756;2022-12-15T15:21:49;23.83;;;11.10;;
17171;SDS011;8701;50.150;8.756;2022-12-15T15:25:53;22.47;;;13.00;;
17171;SDS011;8701;50.150;8.756;2022-12-15T15:30:06;23.40;;;11.67;;
17171;SDS011;8701;50.150;8.756;2022-12-15T15:34:16;23.87;;;12.70;;
17171;SDS011;8701;50.150;8.756;2022-12-15T15:38:22;20.43;;;10.83;;
17171;SDS011;8701;50.150;8.756;2022-12-15T15:42:27;24.57;;;11.50;;
17171;SDS011;8701;50.150;8.756;2022-12-15T15:46:30;18.90;;;10.50;;
17171;SDS011;8701;50.150;8.756;2022-12-15T15:50:34;23.20;;;12.90;;
17171;SDS011;8701;50.150;8.756;2022-12-15T15:54:37;24.90;;;12.27;;
17171;SDS011;8701;50.150;8.756;2022-12-15T15:58:41;24.23;;;12.30;;
17171;SDS011;8701;50.150;8.756;2022-12-15T16:02:44;29.10;;;13.17;;
17171;SDS011;8701;50.150;8.756;2022-12-15T16:06:47;25.70;;;11.90;;
17171;SDS011;8701;50.150;8.756;2022-12-15T16:10:50;30.47;;;12.33;;
17171;SDS011;8701;50.150;8.756;2022-12-15T16:14:53;24.27;;;12.10;;
17171;SDS011;8701;50.150;8.756;2022-12-15T16:18:56;24.73;;;11.63;;
17171;SDS011;8701;50.150;8.756;2022-12-15T16:22:59;26.73;;;11.80;;
17171;SDS011;8701;50.150;8.756;2022-12-15T16:27:04;21.87;;;10.83;;
17171;SDS011;8701;50.150;8.756;2022-12-15T16:31:08;26.60;;;11.80;;
17171;SDS011;8701;50.150;8.756;2022-12-15T16:35:15;19.73;;;10.17;;
17171;SDS011;8701;50.150;8.756;2022-12-15T16:39:22;24.77;;;11.20;;
17171;SDS011;8701;50.150;8.756;2022-12-15T16:43:26;19.23;;;10.73;;
17171;SDS011;8701;50.150;8.756;2022-12-15T16:47:29;23.90;;;11.33;;
17171;SDS011;8701;50.150;8.756;2022-12-15T16:51:33;23.17;;;11.87;;
17171;SDS011;8701;50.150;8.756;2022-12-15T16:55:38;22.37;;;12.33;;
17171;SDS011;8701;50.150;8.756;2022-12-15T16:59:42;20.70;;;11.07;;
17171;SDS011;8701;50.150;8.756;2022-12-15T17:03:45;24.27;;;11.57;;
17171;SDS011;8701;50.150;8.756;2022-12-15T17:07:48;24.63;;;10.47;;
17171;SDS011;8701;50.150;8.756;2022-12-15T17:11:53;19.57;;;10.63;;
17171;SDS011;8701;50.150;8.756;2022-12-15T17:15:56;24.57;;;11.97;;
17171;SDS011;8701;50.150;8.756;2022-12-15T17:20:00;21.60;;;11.60;;
17171;SDS011;8701;50.150;8.756;2022-12-15T17:24:03;20.03;;;11.20;;
17171;SDS011;8701;50.150;8.756;2022-12-15T17:28:10;20.33;;;10.77;;
17171;SDS011;8701;50.150;8.756;2022-12-15T17:32:16;23.73;;;11.10;;
17171;SDS011;8701;50.150;8.756;2022-12-15T17:36:20;22.33;;;11.30;;
17171;SDS011;8701;50.150;8.756;2022-12-15T17:40:25;19.93;;;10.60;;
17171;SDS011;8701;50.150;8.756;2022-12-15T17:44:28;17.13;;;9.40;;
17171;SDS011;8701;50.150;8.756;2022-12-15T17:48:32;17.97;;;9.53;;
17171;SDS011;8701;50.150;8.756;2022-12-15T17:52:37;17.70;;;10.07;;
17171;SDS011;8701;50.150;8.756;2022-12-15T17:56:40;21.07;;;11.30;;
17171;SDS011;8701;50.150;8.756;2022-12-15T18:00:44;20.23;;;10.67;;
17171;SDS011;8701;50.150;8.756;2022-12-15T18:04:47;22.73;;;11.00;;
17171;SDS011;8701;50.150;8.756;2022-12-15T18:08:50;19.70;;;9.97;;
17171;SDS011;8701;50.150;8.756;2022-12-15T18:12:53;21.40;;;11.80;;
17171;SDS011;8701;50.150;8.756;2022-12-15T18:16:55;21.20;;;10.63;;
17171;SDS011;8701;50.150;8.756;2022-12-15T18:20:58;20.90;;;10.40;;
17171;SDS011;8701;50.150;8.756;2022-12-15T18:25:09;22.67;;;10.83;;
17171;SDS011;8701;50.150;8.756;2022-12-15T18:29:16;19.17;;;11.00;;
17171;SDS011;8701;50.150;8.756;2022-12-15T18:33:18;21.90;;;10.60;;
17171;SDS011;8701;50.150;8.756;2022-12-15T18:37:22;17.43;;;10.10;;
17171;SDS011;8701;50.150;8.756;2022-12-15T18:41:26;18.33;;;9.67;;
17171;SDS011;8701;50.150;8.756;2022-12-15T18:45:28;21.83;;;10.20;;
17171;SDS011;8701;50.150;8.756;2022-12-15T18:49:31;16.90;;;9.30;;
17171;SDS011;8701;50.150;8.756;2022-12-15T18:53:34;20.70;;;11.17;;
17171;SDS011;8701;50.150;8.756;2022-12-15T18:57:38;19.20;;;10.10;;
17171;SDS011;8701;50.150;8.756;2022-12-15T19:01:41;18.73;;;9.30;;
17171;SDS011;8701;50.150;8.756;2022-12-15T19:05:43;18.80;;;9.70;;
17171;SDS011;8701;50.150;8.756;2022-12-15T19:09:45;20.23;;;9.63;;
17171;SDS011;8701;50.150;8.756;2022-12-15T19:13:50;15.53;;;9.23;;
17171;SDS011;8701;50.150;8.756;2022-12-15T19:17:52;19.80;;;9.90;;
17171;SDS011;8701;50.150;8.756;2022-12-15T19:22:12;19.43;;;9.50;;
17171;SDS011;8701;50.150;8.756;2022-12-15T19:26:27;21.77;;;10.13;;
17171;SDS011;8701;50.150;8.756;2022-12-15T19:30:31;20.00;;;10.50;;
17171;SDS011;8701;50.150;8.756;2022-12-15T19:34:34;23.77;;;10.00;;
17171;SDS011;8701;50.150;8.756;2022-12-15T19:38:36;19.00;;;10.00;;
17171;SDS011;8701;50.150;8.756;2022-12-15T19:42:39;19.43;;;9.90;;
17171;SDS011;8701;50.150;8.756;2022-12-15T19:46:43;18.87;;;9.90;;
17171;SDS011;8701;50.150;8.756;2022-12-15T19:50:45;20.50;;;9.47;;
17171;SDS011;8701;50.150;8.756;2022-12-15T19:54:50;22.57;;;10.20;;
17171;SDS011;8701;50.150;8.756;2022-12-15T19:58:52;19.90;;;10.00;;
17171;SDS011;8701;50.150;8.756;2022-12-15T20:02:55;20.20;;;9.70;;
17171;SDS011;8701;50.150;8.756;2022-12-15T20:06:58;15.93;;;8.60;;
17171;SDS011;8701;50.150;8.756;2022-12-15T20:11:03;19.83;;;9.67;;
17171;SDS011;8701;50.150;8.756;2022-12-15T20:15:12;17.57;;;10.00;;
17171;SDS011;8701;50.150;8.756;2022-12-15T20:19:16;16.50;;;8.20;;
17171;SDS011;8701;50.150;8.756;2022-12-15T20:23:20;18.23;;;9.20;;
17171;SDS011;8701;50.150;8.756;2022-12-15T20:27:25;18.70;;;9.00;;
17171;SDS011;8701;50.150;8.756;2022-12-15T20:31:28;14.80;;;7.20;;
17171;SDS011;8701;50.150;8.756;2022-12-15T20:35:32;19.40;;;9.37;;
17171;SDS011;8701;50.150;8.756;2022-12-15T20:39:37;16.90;;;9.07;;
17171;SDS011;8701;50.150;8.756;2022-12-15T20:43:40;20.43;;;7.50;;
17171;SDS011;8701;50.150;8.756;2022-12-15T20:47:43;18.00;;;8.20;;
17171;SDS011;8701;50.150;8.756;2022-12-15T20:51:48;18.63;;;8.20;;
17171;SDS011;8701;50.150;8.756;2022-12-15T20:55:53;19.13;;;8.77;;
17171;SDS011;8701;50.150;8.756;2022-12-15T20:59:56;17.90;;;9.17;;
17171;SDS011;8701;50.150;8.756;2022-12-15T21:03:59;17.23;;;8.50;;
17171;SDS011;8701;50.150;8.756;2022-12-15T21:08:07;15.80;;;7.70;;
17171;SDS011;8701;50.150;8.756;2022-12-15T21:12:15;19.60;;;8.00;;
17171;SDS011;8701;50.150;8.756;2022-12-15T21:16:19;17.70;;;7.83;;
17171;SDS011;8701;50.150;8.756;2022-12-15T21:20:23;20.97;;;9.07;;
17171;SDS011;8701;50.150;8.756;2022-12-15T21:28:32;19.37;;;9.47;;
17171;SDS011;8701;50.150;8.756;2022-12-15T21:32:34;17.47;;;8.03;;
17171;SDS011;8701;50.150;8.756;2022-12-15T21:36:37;17.80;;;8.10;;
17171;SDS011;8701;50.150;8.756;2022-12-15T21:40:42;16.60;;;8.50;;
17171;SDS011;8701;50.150;8.756;2022-12-15T21:44:46;15.90;;;7.87;;
17171;SDS011;8701;50.150;8.756;2022-12-15T21:48:48;18.23;;;8.63;;
17171;SDS011;8701;50.150;8.756;2022-12-15T21:53:08;21.00;;;8.40;;
17171;SDS011;8701;50.150;8.756;2022-12-15T21:57:15;19.90;;;8.57;;
17171;SDS011;8701;50.150;8.756;2022-12-15T22:01:19;14.77;;;8.23;;
17171;SDS011;8701;50.150;8.756;2022-12-15T22:05:24;17.33;;;8.63;;
17171;SDS011;8701;50.150;8.756;2022-12-15T22:09:29;16.47;;;8.93;;
17171;SDS011;8701;50.150;8.756;2022-12-15T22:13:31;17.67;;;8.30;;
17171;SDS011;8701;50.150;8.756;2022-12-15T22:17:35;15.10;;;8.10;;
17171;SDS011;8701;50.150;8.756;2022-12-15T22:21:37;17.87;;;8.10;;
17171;SDS011;8701;50.150;8.756;2022-12-15T22:25:41;18.13;;;8.73;;
17171;SDS011;8701;50.150;8.756;2022-12-15T22:29:46;19.47;;;8.80;;
17171;SDS011;8701;50.150;8.756;2022-12-15T22:33:50;21.00;;;8.17;;
17171;SDS011;8701;50.150;8.756;2022-12-15T22:37:53;15.00;;;8.40;;
17171;SDS011;8701;50.150;8.756;2022-12-15T22:41:55;15.63;;;8.10;;
17171;SDS011;8701;50.150;8.756;2022-12-15T22:45:58;15.50;;;7.60;;
17171;SDS011;8701;50.150;8.756;2022-12-15T22:50:02;13.83;;;8.00;;
17171;SDS011;8701;50.150;8.756;2022-12-15T22:54:09;15.60;;;8.10;;
17171;SDS011;8701;50.150;8.756;2022-12-15T22:58:21;17.00;;;8.37;;
17171;SDS011;8701;50.150;8.756;2022-12-15T23:02:27;18.30;;;8.10;;
17171;SDS011;8701;50.150;8.756;2022-12-15T23:06:34;15.47;;;7.73;;
17171;SDS011;8701;50.150;8.756;2022-12-15T23:10:36;15.00;;;7.00;;
17171;SDS011;8701;50.150;8.756;2022-12-15T23:14:57;16.43;;;8.30;;
17171;SDS011;8701;50.150;8.756;2022-12-15T23:19:16;12.90;;;7.50;;
17171;SDS011;8701;50.150;8.756;2022-12-15T23:23:25;12.10;;;6.40;;
17171;SDS011;8701;50.150;8.756;2022-12-15T23:27:27;15.60;;;7.30;;
17171;SDS011;8701;50.150;8.756;2022-12-15T23:31:29;12.63;;;6.47;;
17171;SDS011;8701;50.150;8.756;2022-12-15T23:35:32;14.00;;;7.23;;
17171;SDS011;8701;50.150;8.756;2022-12-15T23:39:36;13.30;;;7.00;;
17171;SDS011;8701;50.150;8.756;2022-12-15T23:43:38;16.07;;;7.03;;
17171;SDS011;8701;50.150;8.756;2022-12-15T23:47:41;12.63;;;7.20;;
17171;SDS011;8701;50.150;8.756;2022-12-15T23:51:43;16.83;;;5.93;;
17171;SDS011;8701;50.150;8.756;2022-12-15T23:55:46;9.90;;;6.10;;
17171;SDS011;8701;50.150;8.756;2022-12-15T23:59:49;12.93;;;6.47;;
